createdAt,value
2019-04-28T00:01:58.339Z,38.73
2019-04-28T00:04:36.656Z,35.50
2019-04-28T00:07:12.425Z,37.63
2019-04-28T00:09:51.015Z,97.15
2019-04-28T00:12:32.852Z,117.75
2019-04-28T00:15:08.475Z,63.33
2019-04-28T00:17:49.035Z,49.05
2019-04-28T00:20:28.806Z,46.25
2019-04-28T00:23:09.110Z,43.83
2019-04-28T00:25:54.262Z,44.53
2019-04-28T00:28:37.779Z,51.10
2019-04-28T00:31:14.918Z,47.90
2019-04-28T00:33:51.463Z,43.52
2019-04-28T00:36:32.135Z,41.37
2019-04-28T00:39:11.073Z,42.03
2019-04-28T00:41:48.976Z,42.15
2019-04-28T00:44:28.301Z,42.17
2019-04-28T00:47:03.855Z,46.90
2019-04-28T00:50:01.952Z,53.73
2019-04-28T00:52:38.281Z,39.23
2019-04-28T00:55:16.178Z,38.45
2019-04-28T00:57:53.087Z,29.23
2019-04-28T01:00:31.673Z,30.02
2019-04-28T01:03:11.731Z,27.17
2019-04-28T01:05:47.576Z,27.32
2019-04-28T01:08:24.655Z,28.35
2019-04-28T01:11:04.100Z,28.73
2019-04-28T01:13:42.145Z,28.90
2019-04-28T01:16:20.248Z,31.23
2019-04-28T01:19:14.023Z,29.92
2019-04-28T01:22:03.087Z,39.58
2019-04-28T01:24:39.642Z,32.90
2019-04-28T01:27:38.094Z,32.35
2019-04-28T01:30:14.710Z,31.75
2019-04-28T01:32:52.946Z,33.05
2019-04-28T01:35:34.744Z,29.42
2019-04-28T01:38:13.419Z,28.27
2019-04-28T01:40:49.935Z,89.58
2019-04-28T01:43:25.904Z,56.60
2019-04-28T01:48:43.500Z,27.62
2019-04-28T01:51:19.099Z,24.07
2019-04-28T01:54:00.079Z,24.37
2019-04-28T01:56:40.291Z,26.87
2019-04-28T01:59:17.996Z,30.15
2019-04-28T02:01:55.424Z,33.28
2019-04-28T02:04:32.594Z,35.90
2019-04-28T02:07:08.288Z,40.88
2019-04-28T02:09:49.098Z,41.85
2019-04-28T02:12:24.421Z,46.65
2019-04-28T02:15:01.040Z,48.35
2019-04-28T02:17:45.784Z,54.00
2019-04-28T02:20:24.556Z,49.75
2019-04-28T02:23:06.986Z,53.10
2019-04-28T02:25:42.287Z,52.88
2019-04-28T02:28:19.778Z,49.15
2019-04-28T02:31:02.188Z,51.70
2019-04-28T02:33:40.802Z,52.43
2019-04-28T02:36:16.934Z,54.95
2019-04-28T02:38:56.391Z,56.40
2019-04-28T02:41:44.646Z,55.88
2019-04-28T02:44:23.430Z,57.40
2019-04-28T02:47:02.314Z,60.75
2019-04-28T02:49:55.696Z,61.37
2019-04-28T02:52:33.866Z,64.37
2019-04-28T02:55:14.472Z,56.68
2019-04-28T02:57:51.903Z,57.67
2019-04-28T03:00:32.106Z,55.40
2019-04-28T03:03:07.904Z,57.50
2019-04-28T03:05:44.979Z,49.05
2019-04-28T03:08:23.757Z,45.05
2019-04-28T03:11:00.921Z,44.55
2019-04-28T03:13:40.926Z,44.55
2019-04-28T03:16:16.696Z,43.78
2019-04-28T03:21:31.054Z,39.20
2019-04-28T03:24:05.609Z,35.90
2019-04-28T03:26:44.950Z,36.77
2019-04-28T03:29:23.412Z,36.45
2019-04-28T03:32:22.866Z,37.53
2019-04-28T03:34:52.988Z,32.98
2019-04-28T03:37:31.342Z,35.17
2019-04-28T03:40:07.149Z,35.15
2019-04-28T03:42:44.196Z,33.45
2019-04-28T03:45:24.400Z,44.18
2019-04-28T03:48:00.345Z,35.00
2019-04-28T03:50:37.520Z,38.03
2019-04-28T03:53:14.865Z,40.10
2019-04-28T03:55:52.033Z,38.15
2019-04-28T03:58:32.259Z,38.35
2019-04-28T04:01:10.449Z,38.33
2019-04-28T04:03:44.765Z,38.53
2019-04-28T04:06:22.809Z,39.70
2019-04-28T04:09:06.720Z,40.10
2019-04-28T04:11:48.051Z,41.53
2019-04-28T04:14:26.179Z,39.88
2019-04-28T04:17:07.276Z,41.50
2019-04-28T04:19:44.730Z,42.93
2019-04-28T04:22:23.367Z,39.30
2019-04-28T04:25:01.131Z,40.73
2019-04-28T04:27:35.737Z,42.95
2019-04-28T04:30:15.510Z,39.45
2019-04-28T04:32:51.256Z,38.42
2019-04-28T04:35:26.909Z,39.40
2019-04-28T04:38:03.757Z,38.25
2019-04-28T04:40:41.358Z,38.38
2019-04-28T04:43:22.968Z,34.45
2019-04-28T04:45:58.553Z,33.80
2019-04-28T04:48:37.330Z,32.48
2019-04-28T04:51:17.437Z,33.53
2019-04-28T04:53:54.798Z,34.23
2019-04-28T04:56:31.490Z,33.53
2019-04-28T04:59:10.501Z,35.75
2019-04-28T05:01:55.825Z,32.78
2019-04-28T05:04:50.529Z,32.45
2019-04-28T05:07:25.145Z,31.52
2019-04-28T05:10:03.225Z,32.42
2019-04-28T05:12:40.433Z,34.08
2019-04-28T05:15:20.201Z,33.02
2019-04-28T05:18:04.393Z,33.75
2019-04-28T05:20:45.029Z,36.35
2019-04-28T05:23:22.673Z,37.67
2019-04-28T05:26:01.500Z,38.98
2019-04-28T05:28:44.055Z,38.25
2019-04-28T05:31:22.945Z,39.55
2019-04-28T05:33:54.067Z,39.88
2019-04-28T05:36:41.170Z,38.92
2019-04-28T05:39:11.259Z,38.88
2019-04-28T05:41:50.467Z,38.80
2019-04-28T05:44:31.813Z,39.13
2019-04-28T05:47:09.789Z,38.92
2019-04-28T05:49:51.461Z,40.28
2019-04-28T05:52:37.284Z,38.17
2019-04-28T05:55:15.281Z,40.08
2019-04-28T05:58:01.435Z,39.53
2019-04-28T06:00:41.774Z,40.52
2019-04-28T06:03:19.865Z,40.80
2019-04-28T06:05:59.997Z,51.60
2019-04-28T06:08:59.917Z,43.60
2019-04-28T06:11:42.015Z,41.40
2019-04-28T06:14:19.872Z,46.80
2019-04-28T06:16:55.549Z,45.25
2019-04-28T06:19:33.319Z,42.85
2019-04-28T06:22:11.519Z,39.60
2019-04-28T06:24:49.811Z,42.30
2019-04-28T06:27:25.343Z,43.92
2019-04-28T06:30:03.990Z,42.98
2019-04-28T06:32:39.671Z,42.48
2019-04-28T06:35:16.563Z,41.45
2019-04-28T06:40:35.278Z,41.00
2019-04-28T06:43:16.525Z,41.05
2019-04-28T06:45:54.332Z,40.80
2019-04-28T06:48:31.258Z,42.55
2019-04-28T06:51:11.891Z,42.57
2019-04-28T06:53:56.207Z,40.38
2019-04-28T06:56:33.857Z,40.38
2019-04-28T06:59:10.518Z,39.70
2019-04-28T07:01:53.331Z,38.78
2019-04-28T07:04:31.648Z,39.27
2019-04-28T07:07:08.887Z,37.38
2019-04-28T07:09:48.095Z,39.98
2019-04-28T07:12:24.041Z,41.30
2019-04-28T07:15:08.433Z,45.38
2019-04-28T07:17:44.453Z,44.63
2019-04-28T07:20:31.751Z,45.40
2019-04-28T07:25:46.613Z,48.98
2019-04-28T07:28:25.473Z,48.80
2019-04-28T07:31:00.400Z,49.65
2019-04-28T07:33:40.673Z,50.92
2019-04-28T07:36:16.316Z,55.78
2019-04-28T07:41:50.439Z,65.00
2019-04-28T07:44:29.357Z,57.10
2019-04-28T07:47:07.752Z,54.83
2019-04-28T07:49:45.170Z,55.95
2019-04-28T07:52:24.639Z,56.55
2019-04-28T07:55:05.660Z,60.38
2019-04-28T07:57:42.847Z,60.00
2019-04-28T08:00:20.965Z,58.92
2019-04-28T08:03:00.714Z,55.28
2019-04-28T08:05:36.564Z,55.83
2019-04-28T08:08:12.106Z,58.60
2019-04-28T08:10:52.241Z,60.40
2019-04-28T08:13:28.806Z,60.48
2019-04-28T08:16:06.120Z,56.45
2019-04-28T08:18:43.137Z,60.35
2019-04-28T08:21:20.512Z,59.13
2019-04-28T08:23:56.210Z,63.90
2019-04-28T08:26:36.157Z,67.75
2019-04-28T08:31:52.106Z,178.50
2019-04-28T08:34:29.008Z,100.40
2019-04-28T08:37:06.678Z,79.27
2019-04-28T08:39:44.632Z,68.60
2019-04-28T08:42:29.901Z,66.40
2019-04-28T08:45:10.814Z,75.78
2019-04-28T08:47:50.167Z,68.67
2019-04-28T08:50:29.764Z,64.65
2019-04-28T08:53:13.970Z,66.37
2019-04-28T08:55:50.485Z,70.78
2019-04-28T08:58:42.006Z,67.53
2019-04-28T09:01:19.692Z,69.15
2019-04-28T09:03:55.996Z,64.82
2019-04-28T09:06:31.559Z,69.37
2019-04-28T09:09:08.599Z,64.47
2019-04-28T09:11:45.676Z,61.23
2019-04-28T09:14:22.717Z,62.40
2019-04-28T09:17:01.752Z,63.33
2019-04-28T09:19:37.186Z,63.68
2019-04-28T09:22:14.266Z,67.53
2019-04-28T09:27:28.628Z,68.57
2019-04-28T09:30:05.217Z,74.27
2019-04-28T09:32:40.965Z,77.97
2019-04-28T09:35:18.791Z,76.45
2019-04-28T09:37:57.972Z,66.82
2019-04-28T09:40:35.143Z,75.05
2019-04-28T09:43:14.536Z,71.67
2019-04-28T09:45:51.512Z,63.55
2019-04-28T09:51:04.649Z,63.33
2019-04-28T09:53:41.540Z,59.90
2019-04-28T09:56:18.398Z,61.88
2019-04-28T09:58:59.042Z,60.50
2019-04-28T10:01:36.656Z,60.28
2019-04-28T10:04:13.766Z,57.73
2019-04-28T10:06:51.549Z,62.78
2019-04-28T10:09:27.189Z,55.05
2019-04-28T10:12:05.197Z,53.50
2019-04-28T10:14:44.669Z,52.30
2019-04-28T10:17:21.574Z,55.65
2019-04-28T10:22:32.960Z,57.65
2019-04-28T10:25:11.163Z,56.42
2019-04-28T10:27:48.362Z,55.03
2019-04-28T10:30:25.431Z,54.18
2019-04-28T10:33:02.852Z,50.90
2019-04-28T10:35:38.415Z,49.05
2019-04-28T10:38:14.559Z,54.97
2019-04-28T10:41:02.113Z,54.15
2019-04-28T10:43:39.530Z,72.35
2019-04-28T10:46:16.578Z,56.98
2019-04-28T10:48:52.428Z,59.23
2019-04-28T10:51:28.739Z,51.65
2019-04-28T10:54:04.553Z,53.25
2019-04-28T10:56:40.239Z,52.70
2019-04-28T10:59:17.841Z,49.95
2019-04-28T11:01:54.262Z,51.45
2019-04-28T11:04:43.378Z,51.30
2019-04-28T11:07:19.986Z,50.90
2019-04-28T11:10:05.119Z,52.62
2019-04-28T11:12:42.456Z,55.33
2019-04-28T11:15:22.534Z,56.18
2019-04-28T11:17:59.646Z,58.48
2019-04-28T11:20:37.091Z,59.03
2019-04-28T11:23:14.156Z,57.60
2019-04-28T11:25:53.653Z,61.10
2019-04-28T11:28:47.869Z,59.93
2019-04-28T11:31:31.611Z,56.73
2019-04-28T11:34:21.501Z,59.80
2019-04-28T11:37:01.888Z,58.83
2019-04-28T11:39:40.192Z,56.92
2019-04-28T11:42:18.396Z,59.03
2019-04-28T11:44:55.291Z,59.20
2019-04-28T11:50:09.526Z,59.73
2019-04-28T11:52:54.441Z,60.85
2019-04-28T11:55:29.929Z,63.25
2019-04-28T11:58:12.105Z,63.92
2019-04-28T12:00:47.860Z,65.15
2019-04-28T12:03:24.965Z,67.47
2019-04-28T12:06:09.256Z,66.30
2019-04-28T12:08:50.678Z,64.72
2019-04-28T12:11:27.227Z,68.67
2019-04-28T12:17:07.371Z,68.50
2019-04-28T12:19:50.933Z,67.78
2019-04-28T12:22:25.793Z,69.90
2019-04-28T12:27:41.386Z,71.50
2019-04-28T12:30:17.648Z,72.00
2019-04-28T12:32:55.643Z,72.30
2019-04-28T12:35:46.800Z,70.05
2019-04-28T12:38:11.556Z,71.72
2019-04-28T12:40:56.363Z,75.27
2019-04-28T12:43:32.914Z,72.35
2019-04-28T12:46:10.701Z,70.47
2019-04-28T12:48:46.333Z,69.00
2019-04-28T12:51:29.887Z,69.72
2019-04-28T12:54:10.889Z,72.50
2019-04-28T12:56:53.813Z,74.62
2019-04-28T12:59:42.254Z,74.32
2019-04-28T13:02:32.589Z,72.55
2019-04-28T13:05:17.482Z,72.22
2019-04-28T13:08:05.921Z,69.85
2019-04-28T13:10:42.375Z,67.00
2019-04-28T13:13:26.525Z,73.25
2019-04-28T13:16:13.754Z,73.87
2019-04-28T13:18:58.607Z,71.92
2019-04-28T13:21:37.248Z,70.90
2019-04-28T13:24:13.918Z,70.37
2019-04-28T13:26:52.316Z,71.07
2019-04-28T13:32:14.133Z,77.60
2019-04-28T13:34:55.439Z,81.28
2019-04-28T13:40:12.560Z,89.87
2019-04-28T13:42:54.553Z,91.92
2019-04-28T13:45:35.755Z,91.72
2019-04-28T13:48:18.667Z,98.72
2019-04-28T13:53:41.481Z,101.25
2019-04-28T13:59:25.626Z,91.65
2019-04-28T14:02:22.188Z,72.62
2019-04-28T14:05:19.061Z,79.20
2019-04-28T14:07:57.040Z,76.75
2019-04-28T14:13:14.625Z,82.95
2019-04-28T14:15:54.050Z,84.00
2019-04-28T14:18:34.451Z,93.58
2019-04-28T14:21:16.540Z,86.53
2019-04-28T14:26:40.499Z,88.92
2019-04-28T14:32:00.868Z,91.28
2019-04-28T14:34:39.146Z,91.37
2019-04-28T14:40:22.108Z,94.58
2019-04-28T14:45:37.884Z,87.40
2019-04-28T14:48:15.391Z,87.07
2019-04-28T14:50:53.358Z,88.90
2019-04-28T14:53:29.629Z,92.67
2019-04-28T14:58:44.860Z,92.62
2019-04-28T15:01:37.220Z,94.20
2019-04-28T15:07:04.304Z,94.80
2019-04-28T15:10:02.597Z,94.97
2019-04-28T15:12:43.123Z,91.67
2019-04-28T15:15:28.766Z,91.50
2019-04-28T15:18:08.777Z,97.57
2019-04-28T15:20:51.825Z,97.92
2019-04-28T15:23:30.840Z,97.22
2019-04-28T15:26:12.596Z,92.15
2019-04-28T15:28:49.613Z,92.67
2019-04-28T15:31:28.189Z,91.30
2019-04-28T15:34:08.993Z,94.10
2019-04-28T15:36:49.716Z,97.35
2019-04-28T15:39:26.283Z,98.72
2019-04-28T15:44:57.548Z,100.05
2019-04-28T15:47:45.891Z,99.90
2019-04-28T15:50:30.400Z,89.62
2019-04-28T15:53:17.860Z,94.60
2019-04-28T15:56:07.231Z,96.25
2019-04-28T15:58:52.196Z,89.28
2019-04-28T16:01:31.402Z,96.08
2019-04-28T16:04:10.917Z,107.32
2019-04-28T16:06:51.944Z,102.35
2019-04-28T16:09:33.614Z,95.05
2019-04-28T16:12:13.299Z,96.15
2019-04-28T16:14:51.306Z,91.50
2019-04-28T16:17:26.983Z,91.45
2019-04-28T16:20:07.411Z,93.75
2019-04-28T16:22:43.593Z,91.90
2019-04-28T16:25:21.195Z,94.13
2019-04-28T16:27:57.824Z,88.75
2019-04-28T16:30:35.974Z,92.12
2019-04-28T16:33:13.358Z,96.02
2019-04-28T16:35:48.602Z,92.25
2019-04-28T16:38:29.462Z,93.65
2019-04-28T16:41:06.758Z,94.10
2019-04-28T16:43:44.110Z,96.53
2019-04-28T16:46:22.096Z,98.25
2019-04-28T16:48:59.280Z,97.62
2019-04-28T16:51:38.829Z,99.45
2019-04-28T16:54:20.416Z,102.38
2019-04-28T16:57:02.642Z,98.82
2019-04-28T16:59:56.034Z,99.42
2019-04-28T17:02:40.890Z,99.80
2019-04-28T17:05:17.548Z,99.50
2019-04-28T17:10:49.735Z,102.45
2019-04-28T17:13:27.799Z,101.27
2019-04-28T17:16:05.235Z,98.72
2019-04-28T17:18:42.876Z,100.07
2019-04-28T17:21:22.477Z,100.55
2019-04-28T17:23:59.035Z,103.75
2019-04-28T17:26:36.539Z,101.38
2019-04-28T17:29:16.852Z,102.72
2019-04-28T17:32:00.460Z,103.65
2019-04-28T17:34:36.319Z,100.97
2019-04-28T17:37:13.613Z,105.37
2019-04-28T17:42:29.941Z,103.97
2019-04-28T17:45:10.175Z,108.55
2019-04-28T17:47:45.943Z,105.47
2019-04-28T17:50:22.633Z,109.95
2019-04-28T17:52:58.139Z,106.70
2019-04-28T17:55:33.949Z,111.35
2019-04-28T17:58:11.508Z,107.67
2019-04-28T18:00:54.232Z,106.92
2019-04-28T18:03:41.519Z,102.20
2019-04-28T18:06:27.788Z,100.55
2019-04-28T18:09:06.486Z,99.83
2019-04-28T18:11:45.529Z,100.95
2019-04-28T18:14:22.147Z,106.52
2019-04-28T18:17:01.435Z,106.27
2019-04-28T18:19:37.382Z,103.78
2019-04-28T18:22:14.851Z,106.37
2019-04-28T18:24:50.572Z,101.30
2019-04-28T18:27:27.706Z,101.42
2019-04-28T18:30:04.854Z,99.55
2019-04-28T18:32:45.249Z,98.47
2019-04-28T18:35:27.041Z,103.40
2019-04-28T18:38:11.117Z,109.17
2019-04-28T18:41:06.348Z,116.25
2019-04-28T18:43:59.075Z,115.88
2019-04-28T18:46:36.181Z,123.25
2019-04-28T18:49:11.771Z,121.47
2019-04-28T18:51:49.365Z,123.22
2019-04-28T18:54:24.872Z,124.62
2019-04-28T18:57:01.681Z,126.95
2019-04-28T18:59:46.819Z,120.80
2019-04-28T19:02:28.441Z,126.02
2019-04-28T19:05:05.344Z,125.02
2019-04-28T19:07:53.253Z,122.75
2019-04-28T19:13:12.846Z,113.80
2019-04-28T19:16:07.766Z,120.30
2019-04-28T19:18:44.499Z,106.12
2019-04-28T19:21:21.976Z,101.65
2019-04-28T19:23:59.004Z,107.95
2019-04-28T19:26:36.114Z,105.97
2019-04-28T19:29:13.167Z,111.20
2019-04-28T19:31:51.338Z,111.75
2019-04-28T19:34:29.259Z,117.82
2019-04-28T19:37:04.965Z,114.32
2019-04-28T19:39:42.009Z,114.30
2019-04-28T19:42:19.887Z,115.15
2019-04-28T19:44:57.823Z,117.57
2019-04-28T19:47:35.084Z,112.72
2019-04-28T19:50:13.213Z,114.55
2019-04-28T19:52:48.629Z,118.35
2019-04-28T19:55:25.400Z,122.22
2019-04-28T19:58:04.901Z,122.80
2019-04-28T20:00:44.796Z,114.97
2019-04-28T20:03:21.265Z,121.57
2019-04-28T20:05:57.027Z,117.03
2019-04-28T20:08:33.991Z,118.77
2019-04-28T20:13:44.933Z,113.90
2019-04-28T20:16:22.381Z,108.67
2019-04-28T20:21:34.294Z,116.03
2019-04-28T20:24:09.918Z,112.28
2019-04-28T20:26:45.754Z,114.50
2019-04-28T20:29:23.304Z,115.40
2019-04-28T20:32:00.649Z,116.95
2019-04-28T20:34:37.663Z,117.67
2019-04-28T20:39:50.567Z,114.90
2019-04-28T20:42:39.822Z,120.67
2019-04-28T20:45:16.400Z,122.30
2019-04-28T20:50:26.349Z,121.70
2019-04-28T20:53:02.202Z,117.33
2019-04-28T20:55:37.764Z,123.70
2019-04-28T20:58:13.514Z,117.75
2019-04-28T21:00:49.072Z,121.13
2019-04-28T21:03:24.911Z,126.70
2019-04-28T21:06:00.451Z,125.72
2019-04-28T21:08:36.140Z,118.13
2019-04-28T21:11:11.651Z,121.07
2019-04-28T21:13:47.393Z,121.65
2019-04-28T21:16:23.858Z,126.33
2019-04-28T21:19:00.194Z,124.67
2019-04-28T21:21:35.840Z,126.30
2019-04-28T21:24:11.619Z,123.97
2019-04-28T21:26:47.091Z,128.25
2019-04-28T21:29:22.949Z,124.40
2019-04-28T21:31:58.474Z,123.90
2019-04-28T21:34:34.245Z,141.35
2019-04-28T21:37:10.147Z,134.40
2019-04-28T21:39:50.769Z,131.45
2019-04-28T21:42:27.415Z,134.60
2019-04-28T21:45:10.245Z,137.47
2019-04-28T21:47:47.197Z,137.68
2019-04-28T21:50:24.365Z,129.90
2019-04-28T21:53:00.026Z,139.32
2019-04-28T21:55:37.228Z,122.60
2019-04-28T21:58:16.770Z,125.02
2019-04-28T22:00:59.401Z,134.15
2019-04-28T22:03:40.650Z,126.18
2019-04-28T22:06:16.391Z,132.52
2019-04-28T22:08:51.976Z,125.60
2019-04-28T22:11:30.224Z,127.72
2019-04-28T22:14:06.045Z,122.90
2019-04-28T22:16:42.578Z,120.40
2019-04-28T22:19:18.783Z,119.72
2019-04-28T22:21:54.939Z,114.42
2019-04-28T22:24:32.841Z,124.85
2019-04-28T22:27:08.891Z,122.72
2019-04-28T22:29:45.830Z,117.97
2019-04-28T22:34:58.350Z,119.10
2019-04-28T22:40:08.889Z,120.37
2019-04-28T22:42:44.746Z,122.13
2019-04-28T22:45:22.166Z,116.80
2019-04-28T22:47:57.960Z,115.50
2019-04-28T22:50:40.949Z,118.08
2019-04-28T22:53:19.631Z,124.58
2019-04-28T22:55:59.203Z,108.80
2019-04-28T22:58:55.622Z,114.88
2019-04-28T23:01:36.312Z,123.70
2019-04-28T23:04:15.201Z,125.47
2019-04-28T23:06:50.827Z,118.10
2019-04-28T23:09:26.656Z,121.15
2019-04-28T23:12:03.139Z,121.45
2019-04-28T23:14:39.022Z,123.75
2019-04-28T23:17:15.959Z,118.67
2019-04-28T23:22:46.324Z,112.42
2019-04-28T23:25:11.084Z,115.47
2019-04-28T23:27:51.019Z,125.87
2019-04-28T23:30:46.649Z,115.17
2019-04-28T23:33:26.073Z,112.68
2019-04-28T23:36:02.309Z,123.20
2019-04-28T23:38:42.567Z,121.92
2019-04-28T23:41:24.189Z,128.10
2019-04-28T23:44:01.197Z,125.50
2019-04-28T23:49:31.030Z,120.10
2019-04-28T23:52:09.231Z,122.22
2019-04-28T23:54:45.864Z,120.35
2019-04-28T23:57:21.688Z,122.20
2019-04-28T23:59:57.390Z,123.62
